Time;durP1;ratioP1;P1;durP2;ratioP2;P2;SDS_P1;SDS_P2;PMS_P1;PMS_P2;Temp;Humidity;BMP_temperature;BMP_pressure;BME280_temperature;BME280_humidity;BME280_pressure;Samples;Min_cycle;Max_cycle;Signal;HPM_P1;HPM_P2
2021/09/14 00:00:22;;;;;;;17.17;11.63;;;;;;;18.05;48.34;95222.06;5054000;28;20450;-69
2021/09/14 00:02:49;;;;;;;17.20;11.63;;;;;;;18.13;48.27;95219.56;5052710;28;20449;-68
2021/09/14 00:05:17;;;;;;;22.57;12.00;;;;;;;18.19;48.28;95222.88;5053868;28;20450;-67
2021/09/14 00:07:44;;;;;;;18.50;12.50;;;;;;;18.11;48.75;95218.25;5054893;28;20451;-69
2021/09/14 00:10:11;;;;;;;20.27;12.07;;;;;;;18.03;49.12;95221.59;5062836;28;20447;-70
2021/09/14 00:12:38;;;;;;;25.23;12.67;;;;;;;17.84;48.95;95215.59;5059471;28;21038;-72
2021/09/14 00:15:09;;;;;;;16.67;11.83;;;;;;;17.82;48.79;95221.19;5066182;28;20449;-66
2021/09/14 00:17:36;;;;;;;18.37;12.30;;;;;;;17.85;49.12;95227.75;5040224;28;20486;-70
2021/09/14 00:20:04;;;;;;;20.20;12.53;;;;;;;17.70;48.85;95220.84;5040242;28;20474;-71
2021/09/14 00:22:31;;;;;;;22.30;11.67;;;;;;;17.42;50.29;95215.75;5038227;28;20446;-67
2021/09/14 00:24:58;;;;;;;17.60;11.17;;;;;;;17.68;48.92;95222.22;5041354;28;20458;-69
2021/09/14 00:27:25;;;;;;;21.23;11.57;;;;;;;17.52;49.26;95223.53;5050853;28;20461;-66
2021/09/14 00:29:52;;;;;;;17.13;12.07;;;;;;;17.63;49.55;95227.59;5043460;28;20440;-66
2021/09/14 00:32:19;;;;;;;17.17;11.67;;;;;;;17.61;49.76;95221.84;5046682;28;20450;-69
2021/09/14 00:34:46;;;;;;;23.80;12.07;;;;;;;17.63;48.94;95224.94;5041534;28;20474;-71
2021/09/14 00:37:13;;;;;;;16.77;11.10;;;;;;;17.68;49.21;95222.22;5052748;28;20984;-69
2021/09/14 00:39:39;;;;;;;13.70;10.40;;;;;;;17.30;49.76;95226.00;5056500;28;20430;-73
2021/09/14 00:42:07;;;;;;;19.30;10.57;;;;;;;17.27;49.67;95223.94;5054456;28;20489;-71
2021/09/14 00:44:33;;;;;;;18.73;11.27;;;;;;;17.30;49.34;95228.66;5065457;28;20462;-70
2021/09/14 00:47:00;;;;;;;18.40;10.43;;;;;;;17.11;49.79;95228.69;5061148;28;20847;-70
2021/09/14 00:49:27;;;;;;;15.07;10.10;;;;;;;17.39;49.42;95232.22;5052819;28;20453;-69
2021/09/14 00:51:54;;;;;;;15.20;9.60;;;;;;;17.64;49.06;95229.19;5042987;28;20443;-71
2021/09/14 00:54:22;;;;;;;12.20;10.27;;;;;;;17.66;48.61;95229.69;5041751;28;20454;-71
2021/09/14 00:56:49;;;;;;;13.00;10.40;;;;;;;17.74;48.21;95231.66;5060329;28;20495;-69
2021/09/14 00:59:16;;;;;;;14.30;10.47;;;;;;;17.50;48.46;95225.72;5062871;28;20859;-68
2021/09/14 01:01:43;;;;;;;11.97;9.40;;;;;;;17.33;49.03;95233.38;5031028;28;20452;-68
2021/09/14 01:04:11;;;;;;;13.70;9.33;;;;;;;17.40;49.02;95236.44;5031752;28;20443;-71
2021/09/14 01:06:39;;;;;;;10.83;8.80;;;;;;;17.63;48.08;95232.91;5054223;28;20447;-69
2021/09/14 01:09:06;;;;;;;14.93;9.00;;;;;;;17.65;48.04;95233.41;5063794;28;20854;-70
2021/09/14 01:11:33;;;;;;;10.87;7.80;;;;;;;17.65;47.67;95222.78;5047351;28;20517;-70
2021/09/14 01:14:04;;;;;;;9.63;8.17;;;;;;;17.63;48.03;95233.69;5049136;28;20482;-71
2021/09/14 01:16:33;;;;;;;12.80;8.53;;;;;;;17.39;48.57;95226.94;5053936;28;20447;-69
2021/09/14 01:19:03;;;;;;;14.17;8.00;;;;;;;17.40;48.15;95236.44;5050622;28;20483;-66
2021/09/14 01:21:30;;;;;;;11.17;8.50;;;;;;;17.40;48.65;95228.50;5051172;28;20443;-70
2021/09/14 01:23:58;;;;;;;11.03;8.40;;;;;;;17.48;47.75;95241.13;5036506;28;20453;-68
2021/09/14 01:26:30;;;;;;;11.83;9.97;;;;;;;17.26;48.61;95240.91;5050299;28;20498;-69
2021/09/14 01:28:57;;;;;;;12.47;10.00;;;;;;;17.10;49.55;95238.47;5050436;28;20438;-68
2021/09/14 01:31:24;;;;;;;15.33;10.53;;;;;;;17.04;50.66;95236.97;5051641;28;20453;-67
2021/09/14 01:33:52;;;;;;;11.73;10.10;;;;;;;17.03;49.93;95235.41;5051413;28;20451;-70
2021/09/14 01:36:23;;;;;;;15.40;11.07;;;;;;;17.10;50.07;95238.47;5062451;28;20439;-68
2021/09/14 01:38:51;;;;;;;17.67;10.03;;;;;;;17.02;50.00;95233.81;5061475;28;20486;-68
2021/09/14 01:41:19;;;;;;;10.70;9.57;;;;;;;17.19;49.29;95230.66;5036175;28;20459;-68
2021/09/14 01:43:46;;;;;;;15.80;10.47;;;;;;;16.71;49.62;95235.34;5050507;28;20936;-69
2021/09/14 01:46:13;;;;;;;16.83;10.60;;;;;;;17.02;49.62;95230.41;5049796;28;20447;-69
2021/09/14 01:48:41;;;;;;;14.97;10.30;;;;;;;16.99;49.86;95231.75;5039583;28;20455;-69
2021/09/14 01:51:08;;;;;;;14.67;10.10;;;;;;;17.00;49.16;95233.34;5035136;28;20972;-71
2021/09/14 01:53:35;;;;;;;15.17;10.90;;;;;;;16.98;50.78;95234.69;5050528;28;20435;-70
2021/09/14 01:56:05;;;;;;;17.97;11.47;;;;;;;16.88;50.41;95226.88;5035866;28;20542;-73
2021/09/14 01:58:37;;;;;;;20.50;12.97;;;;;;;16.83;51.08;95243.63;5050259;28;20498;-72
2021/09/14 02:01:56;;;;;;;17.17;11.70;;;;;;;16.70;52.57;95238.25;5031723;28;20534;-68
2021/09/14 02:07:08;;;;;;;17.27;11.67;;;;;;;16.74;51.53;95234.75;5040033;28;20835;-70
2021/09/14 02:43:18;;;;;;;15.23;11.07;;;;;;;16.66;52.35;95250.50;5051698;28;20477;-69
2021/09/14 02:59:17;;;;;;;15.67;10.70;;;;;;;16.34;53.28;95260.88;5048968;28;22250;-68
2021/09/14 03:01:44;;;;;;;16.73;11.00;;;;;;;16.22;53.91;95254.13;5041231;28;20446;-66
2021/09/14 03:04:13;;;;;;;13.57;10.77;;;;;;;16.40;52.80;95267.69;5045321;28;20830;-71
2021/09/14 03:06:42;;;;;;;13.93;11.20;;;;;;;16.33;52.61;95265.38;5049464;28;20443;-66
2021/09/14 03:09:21;;;;;;;14.80;11.17;;;;;;;16.26;53.01;95259.66;5057530;28;20481;-71
2021/09/14 03:11:49;;;;;;;21.47;11.10;;;;;;;16.33;53.42;95268.03;5047491;28;20447;-71
2021/09/14 03:14:16;;;;;;;13.70;10.60;;;;;;;15.98;53.96;95265.78;5037341;28;20859;-70
2021/09/14 03:16:44;;;;;;;20.97;11.30;;;;;;;15.94;54.03;95267.41;5049661;28;20443;-68
2021/09/14 03:19:10;;;;;;;13.33;11.30;;;;;;;15.97;53.98;95266.81;5029290;28;20487;-71
2021/09/14 03:21:38;;;;;;;14.10;10.70;;;;;;;15.92;53.74;95272.97;5040764;28;20482;-68
2021/09/14 03:24:08;;;;;;;15.33;11.57;;;;;;;15.77;54.37;95267.03;5048573;28;20451;-72
2021/09/14 03:26:34;;;;;;;17.67;11.80;;;;;;;15.76;53.87;95265.44;5057612;28;20813;-68
2021/09/14 03:29:01;;;;;;;18.83;11.70;;;;;;;15.82;53.54;95269.63;5059851;28;20537;-69
2021/09/14 03:31:36;;;;;;;14.77;11.73;;;;;;;15.87;53.55;95264.28;5044445;28;20942;-70
2021/09/14 03:34:03;;;;;;;16.93;12.43;;;;;;;15.84;53.24;95267.47;5048511;28;21044;-68
2021/09/14 03:36:31;;;;;;;15.77;12.03;;;;;;;15.88;53.03;95263.22;5051319;28;20449;-70
2021/09/14 03:38:58;;;;;;;17.13;11.90;;;;;;;15.95;52.94;95268.97;5049532;28;20489;-70
2021/09/14 03:41:25;;;;;;;15.30;11.70;;;;;;;15.81;53.34;95273.31;5049738;28;21039;-67
2021/09/14 03:43:52;;;;;;;16.07;11.90;;;;;;;15.82;54.11;95274.91;5053484;28;20474;-67
2021/09/14 03:46:21;;;;;;;19.10;12.17;;;;;;;15.97;53.21;95282.69;5051296;28;20475;-67
2021/09/14 03:48:48;;;;;;;23.33;12.23;;;;;;;15.87;53.46;95280.16;5049027;28;21045;-69
2021/09/14 03:51:16;;;;;;;17.10;11.90;;;;;;;15.73;54.32;95281.88;5051041;28;20440;-69
2021/09/14 03:53:43;;;;;;;16.03;12.10;;;;;;;15.70;53.56;95282.41;5041409;28;20457;-68
2021/09/14 03:56:11;;;;;;;18.17;11.20;;;;;;;15.69;53.85;95286.13;5047943;28;21033;-70
2021/09/14 03:58:39;;;;;;;15.40;11.60;;;;;;;15.74;54.12;95283.44;5048702;28;20480;-74
2021/09/14 04:01:08;;;;;;;20.90;11.60;;;;;;;15.63;54.04;95268.72;5044334;28;20443;-68
2021/09/14 04:03:45;;;;;;;18.83;12.43;;;;;;;15.66;53.74;95286.66;5043927;28;20485;-68
2021/09/14 04:08:52;;;;;;;16.73;12.70;;;;;;;15.64;54.38;95302.78;5038980;28;20475;-72
2021/09/14 04:11:25;;;;;;;22.43;11.90;;;;;;;15.44;54.35;95295.03;5045155;28;20969;-66
2021/09/14 04:13:55;;;;;;;26.07;12.80;;;;;;;15.57;54.75;95309.44;5059065;28;20447;-71
2021/09/14 04:16:23;;;;;;;21.43;12.80;;;;;;;15.60;54.42;95309.69;5047044;28;20848;-70
2021/09/14 04:18:50;;;;;;;18.73;13.00;;;;;;;15.56;54.52;95306.03;5030974;28;21162;-69
2021/09/14 04:21:18;;;;;;;21.80;12.10;;;;;;;15.62;54.19;95320.00;5046298;28;20439;-72
2021/09/14 04:23:46;;;;;;;20.17;12.60;;;;;;;15.59;54.33;95312.63;5037913;28;20447;-69
2021/09/14 04:26:13;;;;;;;18.47;11.97;;;;;;;15.60;54.03;95308.91;5047447;28;20446;-73
2021/09/14 04:28:40;;;;;;;20.57;12.13;;;;;;;15.52;54.03;95320.06;5047607;28;21353;-69
2021/09/14 04:31:09;;;;;;;20.50;11.87;;;;;;;15.59;54.29;95318.69;5048339;28;20434;-71
2021/09/14 04:33:36;;;;;;;19.70;11.30;;;;;;;15.56;55.05;95321.91;5047194;28;20961;-68
2021/09/14 04:36:03;;;;;;;18.00;12.07;;;;;;;15.61;54.83;95326.34;5040177;28;20453;-71
2021/09/14 04:38:32;;;;;;;83.03;54.83;;;;;;;15.48;55.50;95319.81;5041320;28;20479;-70
2021/09/14 04:41:00;;;;;;;47.33;32.87;;;;;;;15.55;55.42;95322.16;5050590;28;21208;-69
2021/09/14 04:43:26;;;;;;;44.83;34.93;;;;;;;15.59;55.49;95317.91;5047601;28;20483;-71
2021/09/14 04:45:53;;;;;;;31.47;17.43;;;;;;;15.63;55.45;95324.22;5052569;28;20461;-71
2021/09/14 04:48:22;;;;;;;23.43;13.10;;;;;;;15.33;56.30;95311.19;5051094;28;20438;-70
2021/09/14 04:50:52;;;;;;;20.33;13.03;;;;;;;15.56;55.38;95321.09;5050876;28;20965;-69
2021/09/14 04:53:19;;;;;;;28.10;14.03;;;;;;;15.49;55.42;95323.25;5041640;28;20440;-70
2021/09/14 04:55:47;;;;;;;54.73;43.97;;;;;;;15.53;55.97;95334.88;5035160;28;20440;-68
2021/09/14 04:58:14;;;;;;;61.23;45.60;;;;;;;15.56;55.19;95323.75;5037631;28;20447;-72
2021/09/14 05:00:43;;;;;;;41.17;26.50;;;;;;;15.59;55.04;95325.81;5038395;28;20441;-70
2021/09/14 05:03:15;;;;;;;31.03;13.97;;;;;;;15.66;55.05;95329.72;5050193;28;20537;-68
2021/09/14 05:05:42;;;;;;;23.40;13.73;;;;;;;15.60;54.49;95325.53;5052033;28;20905;-70
2021/09/14 05:08:11;;;;;;;23.50;15.07;;;;;;;15.53;54.55;95337.50;5043827;28;21052;-69
2021/09/14 05:10:38;;;;;;;21.67;13.03;;;;;;;15.59;54.99;95331.09;5046617;28;20942;-73
2021/09/14 05:13:07;;;;;;;23.17;13.07;;;;;;;15.89;54.10;95333.53;5039155;28;20472;-71
2021/09/14 05:15:35;;;;;;;21.33;11.67;;;;;;;15.91;53.14;95336.69;5031022;28;20498;-70
2021/09/14 05:18:18;;;;;;;17.37;11.70;;;;;;;16.05;53.37;95337.59;5043604;28;20451;-72
2021/09/14 05:20:47;;;;;;;19.90;13.57;;;;;;;16.10;53.21;95340.19;5045565;28;20478;-71
2021/09/14 05:23:24;;;;;;;21.47;13.03;;;;;;;16.19;53.54;95343.81;5030656;28;20483;-68
2021/09/14 05:25:54;;;;;;;22.17;13.20;;;;;;;16.11;53.72;95342.56;5049794;28;20828;-71
2021/09/14 05:28:21;;;;;;;29.47;13.77;;;;;;;16.07;53.59;95346.03;5040604;28;21009;-69
2021/09/14 05:30:49;;;;;;;27.70;14.10;;;;;;;16.14;53.72;95343.84;5045758;28;20444;-69
2021/09/14 05:33:16;;;;;;;15.37;12.57;;;;;;;16.30;53.88;95355.88;5041793;28;20458;-69
2021/09/14 05:35:48;;;;;;;24.57;12.77;;;;;;;16.32;53.51;95351.09;5050200;28;20443;-68
2021/09/14 05:38:18;;;;;;;23.07;13.70;;;;;;;16.39;53.10;95359.47;5050975;28;20831;-72
2021/09/14 05:40:47;;;;;;;23.17;12.90;;;;;;;16.52;53.22;95358.84;5048205;28;20447;-66
2021/09/14 05:43:26;;;;;;;19.90;13.37;;;;;;;16.55;53.56;95350.34;5036326;28;21005;-71
2021/09/14 05:45:54;;;;;;;18.43;12.50;;;;;;;16.86;52.44;95348.94;5047735;28;20448;-69
2021/09/14 05:48:25;;;;;;;23.80;13.57;;;;;;;16.68;52.93;95346.22;5035980;28;20440;-70
2021/09/14 05:50:52;;;;;;;26.33;14.10;;;;;;;16.70;53.61;95359.97;5052885;28;20498;-70
2021/09/14 05:53:20;;;;;;;25.23;14.27;;;;;;;16.70;54.12;95360.75;5053182;28;20450;-70
2021/09/14 05:55:52;;;;;;;19.73;13.53;;;;;;;16.45;53.92;95357.56;5050123;28;20554;-70
2021/09/14 05:58:19;;;;;;;26.50;13.77;;;;;;;16.52;54.40;95358.84;5050437;28;20443;-68
2021/09/14 06:00:46;;;;;;;24.20;14.10;;;;;;;16.75;52.85;95358.06;5049537;28;20501;-70
2021/09/14 06:03:14;;;;;;;20.63;12.77;;;;;;;16.50;54.20;95362.81;5050634;28;20523;-72
2021/09/14 06:05:41;;;;;;;18.87;13.27;;;;;;;16.61;55.19;95366.94;5036950;28;20448;-71
2021/09/14 06:08:08;;;;;;;27.20;13.93;;;;;;;16.74;55.16;95372.38;5049521;28;20435;-69
2021/09/14 06:10:40;;;;;;;19.80;13.57;;;;;;;16.98;54.35;95370.50;5049888;28;20446;-72
2021/09/14 06:13:14;;;;;;;21.50;13.63;;;;;;;16.99;54.40;95358.03;5043450;28;20450;-71
2021/09/14 06:15:41;;;;;;;20.40;12.30;;;;;;;17.01;53.19;95369.13;5050957;28;20542;-69
2021/09/14 06:18:09;;;;;;;24.73;12.93;;;;;;;17.14;53.98;95366.59;5049913;28;20551;-71
2021/09/14 06:20:38;;;;;;;21.30;14.10;;;;;;;17.43;52.55;95353.22;5049336;28;21008;-69
2021/09/14 06:23:05;;;;;;;19.50;13.50;;;;;;;17.87;51.31;95363.44;5049975;28;20857;-70
2021/09/14 06:25:35;;;;;;;25.47;14.33;;;;;;;17.80;50.94;95358.53;5035772;28;20435;-71
2021/09/14 06:28:05;;;;;;;20.97;13.90;;;;;;;17.81;51.10;95354.03;5049533;28;20475;-72
2021/09/14 06:30:50;;;;;;;27.63;14.87;;;;;;;17.89;50.35;95340.09;5036933;28;20832;-69
2021/09/14 06:33:23;;;;;;;20.33;12.87;;;;;;;17.41;53.34;95362.53;5050256;28;20849;-71
2021/09/14 06:35:52;;;;;;;23.37;13.93;;;;;;;17.57;53.04;95364.69;5035295;28;20224;-72
2021/09/14 06:38:24;;;;;;;22.57;14.43;;;;;;;17.48;54.31;95365.66;5049364;28;21052;-73
2021/09/14 06:40:53;;;;;;;19.93;14.33;;;;;;;17.17;53.96;95360.72;5035341;28;20985;-71
2021/09/14 06:43:24;;;;;;;22.00;14.67;;;;;;;17.42;53.29;95356.16;5051641;28;20841;-73
2021/09/14 06:46:22;;;;;;;19.43;14.53;;;;;;;17.88;51.84;95359.75;5050474;28;20441;-73
2021/09/14 06:49:11;;;;;;;24.33;15.13;;;;;;;17.87;52.36;95355.50;5049436;28;20445;-72
2021/09/14 06:51:37;;;;;;;24.10;14.27;;;;;;;17.79;51.04;95345.56;5050788;28;20449;-69
2021/09/14 06:54:04;;;;;;;17.43;14.03;;;;;;;17.98;51.80;95365.66;5050394;28;20442;-71
2021/09/14 06:56:31;;;;;;;25.37;13.37;;;;;;;18.21;50.17;95363.94;5050536;28;20447;-71
2021/09/14 06:58:58;;;;;;;25.17;14.60;;;;;;;18.24;51.14;95374.00;5051668;28;21039;-72
2021/09/14 07:01:26;;;;;;;20.57;13.87;;;;;;;18.26;49.94;95366.53;5032084;28;20201;-71
2021/09/14 07:03:54;;;;;;;20.27;13.20;;;;;;;18.51;49.46;95373.28;5045250;28;20516;-71
2021/09/14 07:06:21;;;;;;;27.20;13.50;;;;;;;18.51;49.62;95363.44;5049740;28;20197;-67
2021/09/14 07:08:48;;;;;;;24.57;14.67;;;;;;;18.64;49.84;95362.69;5044460;28;20196;-70
2021/09/14 07:11:16;;;;;;;21.77;13.63;;;;;;;18.62;50.35;95374.66;5049990;28;20779;-72
2021/09/14 07:13:43;;;;;;;25.07;13.80;;;;;;;18.83;47.69;95370.56;5033529;28;20687;-67
2021/09/14 07:16:10;;;;;;;21.00;12.97;;;;;;;19.30;47.27;95366.69;5039402;28;20534;-72
2021/09/14 07:18:38;;;;;;;28.07;13.97;;;;;;;19.42;48.24;95372.28;5048901;28;20196;-69
2021/09/14 07:21:06;;;;;;;30.30;13.80;;;;;;;19.58;48.73;95370.88;5037951;28;20196;-70
2021/09/14 07:23:33;;;;;;;22.63;13.93;;;;;;;19.63;47.00;95373.44;5036365;28;20754;-70
2021/09/14 07:26:00;;;;;;;23.70;14.50;;;;;;;19.69;48.09;95380.22;5030273;28;20205;-66
2021/09/14 07:28:28;;;;;;;24.70;14.80;;;;;;;19.63;47.82;95378.75;5043083;28;20208;-70
2021/09/14 07:30:55;;;;;;;22.00;14.10;;;;;;;19.82;46.37;95384.69;5035850;28;20196;-66
2021/09/14 07:33:22;;;;;;;30.47;14.47;;;;;;;19.85;47.09;95381.44;5050158;28;20222;-72
2021/09/14 07:35:49;;;;;;;24.50;14.27;;;;;;;20.08;44.21;95377.69;5035549;28;20199;-69
2021/09/14 07:38:15;;;;;;;26.43;15.37;;;;;;;20.40;44.62;95366.78;5050017;28;20216;-69
2021/09/14 07:40:42;;;;;;;21.97;14.13;;;;;;;20.35;44.81;95361.59;5034361;28;20683;-69
2021/09/14 07:43:09;;;;;;;24.47;15.00;;;;;;;20.17;45.87;95367.91;5030194;28;20263;-69
2021/09/14 07:45:36;;;;;;;31.53;16.00;;;;;;;20.36;45.21;95367.72;5032361;28;20561;-70
2021/09/14 07:48:03;;;;;;;29.57;16.07;;;;;;;20.39;46.84;95367.88;5037741;28;20203;-69
2021/09/14 07:50:30;;;;;;;27.63;15.30;;;;;;;20.55;45.24;95368.28;5054237;28;20204;-71
2021/09/14 07:52:57;;;;;;;25.23;15.13;;;;;;;20.66;44.12;95366.91;5046273;28;20193;-69
2021/09/14 07:55:24;;;;;;;27.80;14.87;;;;;;;20.76;44.68;95372.78;5043100;28;20200;-71
2021/09/14 07:57:51;;;;;;;24.97;13.90;;;;;;;21.22;44.38;95368.88;5030774;28;20223;-70
2021/09/14 08:00:18;;;;;;;19.17;13.53;;;;;;;21.31;42.95;95369.69;5029925;28;20327;-71
2021/09/14 08:02:58;;;;;;;29.57;15.60;;;;;;;21.40;42.79;95363.28;5046644;28;20305;-67
2021/09/14 08:05:27;;;;;;;28.77;15.27;;;;;;;21.35;41.26;95359.97;5050107;28;20269;-74
2021/09/14 08:07:54;;;;;;;25.87;14.10;;;;;;;21.17;42.58;95359.13;5034367;28;20687;-69
2021/09/14 08:10:21;;;;;;;23.77;14.27;;;;;;;21.36;43.64;95356.19;5039761;28;20587;-67
2021/09/14 08:12:48;;;;;;;25.77;14.17;;;;;;;21.28;41.73;95354.28;5050792;28;20203;-69
2021/09/14 08:15:15;;;;;;;22.60;13.20;;;;;;;21.46;43.25;95355.91;5053473;28;20200;-70
2021/09/14 08:17:42;;;;;;;28.83;13.37;;;;;;;21.71;42.83;95345.25;5051829;28;20188;-71
2021/09/14 08:20:10;;;;;;;21.33;13.07;;;;;;;21.58;42.42;95335.53;5053128;28;20217;-67
2021/09/14 08:22:36;;;;;;;26.63;12.20;;;;;;;21.89;42.42;95338.84;5039491;28;20571;-68
2021/09/14 08:25:04;;;;;;;20.60;12.43;;;;;;;21.81;41.56;95330.81;5053407;28;20257;-68
2021/09/14 08:27:31;;;;;;;18.00;12.37;;;;;;;22.12;41.55;95337.56;5052778;28;20200;-71
2021/09/14 08:30:01;;;;;;;19.10;12.40;;;;;;;22.30;39.48;95340.97;5053023;28;20203;-71
2021/09/14 08:32:28;;;;;;;23.90;12.47;;;;;;;22.46;39.30;95320.69;5038995;28;20196;-69
2021/09/14 08:34:55;;;;;;;19.77;10.97;;;;;;;22.67;39.19;95326.91;5053293;28;20192;-70
2021/09/14 08:37:22;;;;;;;19.20;10.80;;;;;;;23.04;38.66;95322.63;5038646;28;20680;-71
2021/09/14 08:39:49;;;;;;;22.27;10.33;;;;;;;23.28;38.23;95319.34;5053371;28;20224;-67
2021/09/14 08:42:16;;;;;;;14.47;9.00;;;;;;;23.22;37.74;95316.06;5052371;28;20695;-70
2021/09/14 08:44:43;;;;;;;21.03;8.70;;;;;;;23.49;35.50;95314.81;5033625;28;20701;-66
2021/09/14 08:47:14;;;;;;;17.57;8.00;;;;;;;23.22;34.22;95310.72;5045793;28;20197;-68
2021/09/14 08:49:41;;;;;;;15.50;7.50;;;;;;;23.61;35.00;95306.88;5033708;28;20270;-70
2021/09/14 08:52:11;;;;;;;15.87;8.57;;;;;;;23.96;35.55;95305.44;5046169;28;20295;-72
2021/09/14 08:54:38;;;;;;;11.00;7.23;;;;;;;24.14;34.37;95303.41;5033241;28;20251;-70
2021/09/14 08:57:06;;;;;;;15.80;6.63;;;;;;;24.37;33.31;95297.34;5045413;28;20201;-72
2021/09/14 08:59:33;;;;;;;12.03;7.83;;;;;;;24.35;34.06;95283.50;5050262;28;20217;-67
2021/09/14 09:02:06;;;;;;;15.77;6.60;;;;;;;24.49;34.19;95300.03;5036551;28;20193;-71
2021/09/14 09:04:33;;;;;;;12.90;6.70;;;;;;;24.51;33.39;95292.44;5055140;28;20188;-72
2021/09/14 09:07:00;;;;;;;15.70;6.23;;;;;;;24.19;32.87;95285.25;5054659;28;20197;-70
2021/09/14 09:09:29;;;;;;;13.17;6.57;;;;;;;24.52;32.53;95288.66;5050757;28;20203;-69
2021/09/14 09:11:56;;;;;;;9.27;6.23;;;;;;;24.73;34.01;95289.38;5039297;28;20196;-68
2021/09/14 09:14:44;;;;;;;11.77;6.03;;;;;;;25.05;32.51;95280.41;5032609;28;20720;-72
2021/09/14 09:17:16;;;;;;;13.13;5.83;;;;;;;25.25;31.53;95288.66;5049482;28;20189;-69
2021/09/14 09:20:01;;;;;;;9.93;5.60;;;;;;;25.04;29.92;95281.53;5052273;28;20208;-67
2021/09/14 09:22:27;;;;;;;10.27;5.30;;;;;;;25.42;32.02;95283.06;5052292;28;20215;-70
2021/09/14 09:24:55;;;;;;;10.40;5.07;;;;;;;25.63;30.72;95275.63;5052938;28;20205;-68
2021/09/14 09:27:25;;;;;;;11.13;6.10;;;;;;;25.75;30.84;95276.34;5052046;28;20224;-69
2021/09/14 09:30:05;;;;;;;9.40;5.53;;;;;;;25.55;28.96;95276.53;5052238;28;20196;-69
2021/09/14 09:32:49;;;;;;;11.70;6.40;;;;;;;25.76;30.38;95274.47;5052167;28;20546;-70
2021/09/14 09:35:30;;;;;;;11.33;5.30;;;;;;;25.08;29.48;95273.59;5052368;28;20211;-69
2021/09/14 09:37:58;;;;;;;14.67;5.33;;;;;;;25.64;31.48;95274.50;5038635;28;20199;-72
2021/09/14 09:40:37;;;;;;;12.17;5.23;;;;;;;26.03;29.98;95260.25;5051924;28;20220;-74
2021/09/14 09:43:09;;;;;;;10.13;4.80;;;;;;;26.34;28.46;95260.31;5039022;28;20224;-71
2021/09/14 09:45:47;;;;;;;9.53;5.30;;;;;;;26.38;29.09;95255.81;5052087;28;20196;-69
2021/09/14 09:48:15;;;;;;;6.77;5.17;;;;;;;26.25;28.46;95257.00;5031805;28;20204;-71
2021/09/14 09:50:43;;;;;;;7.97;5.40;;;;;;;26.43;28.31;95263.59;5033916;28;20193;-69
2021/09/14 09:53:11;;;;;;;7.20;4.77;;;;;;;26.34;28.25;95246.88;5052022;28;20193;-68
2021/09/14 09:55:39;;;;;;;5.90;4.57;;;;;;;26.63;29.50;95251.81;5037264;28;20193;-68
2021/09/14 09:58:07;;;;;;;10.40;4.97;;;;;;;26.58;26.46;95249.41;5051743;28;20189;-68
2021/09/14 10:00:40;;;;;;;13.73;5.03;;;;;;;26.89;29.92;95244.03;5038431;28;20228;-70
2021/09/14 10:03:16;;;;;;;5.93;5.10;;;;;;;27.13;28.14;95243.00;5031740;28;20651;-70
2021/09/14 10:05:47;;;;;;;7.43;4.63;;;;;;;27.28;28.22;95244.09;5031057;28;20586;-69
2021/09/14 10:08:20;;;;;;;8.80;5.50;;;;;;;27.49;26.31;95236.47;5031793;28;20207;-70
2021/09/14 10:10:55;;;;;;;10.83;5.37;;;;;;;27.28;26.71;95239.47;5045162;28;20207;-69
2021/09/14 10:13:33;;;;;;;9.40;5.40;;;;;;;27.30;27.48;95236.47;5045773;28;20204;-69
2021/09/14 10:16:01;;;;;;;13.70;5.53;;;;;;;27.28;28.37;95201.03;5051110;28;20457;-68
2021/09/14 10:18:30;;;;;;;8.57;4.73;;;;;;;27.60;26.65;95234.78;5051378;28;20197;-69
2021/09/14 10:20:58;;;;;;;7.67;4.80;;;;;;;27.64;25.97;95224.88;5037173;28;20208;-67
2021/09/14 10:23:31;;;;;;;10.57;5.60;;;;;;;27.72;28.35;95226.56;5051213;28;20201;-69
2021/09/14 10:26:13;;;;;;;8.57;5.27;;;;;;;27.99;26.43;95225.59;5050489;28;21027;-68
2021/09/14 10:28:48;;;;;;;10.10;5.60;;;;;;;27.93;25.27;95229.69;5051189;28;20215;-70
2021/09/14 10:31:26;;;;;;;10.27;4.80;;;;;;;27.84;25.64;95219.13;5042979;28;20652;-69
2021/09/14 10:34:20;;;;;;;8.17;5.57;;;;;;;27.52;25.38;95217.72;5046030;28;20203;-69
2021/09/14 10:37:03;;;;;;;7.63;5.00;;;;;;;27.56;25.19;95223.16;5038089;28;20579;-70
2021/09/14 10:39:36;;;;;;;5.80;4.53;;;;;;;27.94;26.14;95221.25;5035808;28;20210;-65
2021/09/14 10:42:20;;;;;;;7.70;4.80;;;;;;;28.09;25.55;95203.44;5050279;28;20216;-67
2021/09/14 10:44:49;;;;;;;8.67;5.13;;;;;;;28.09;25.73;95208.81;5051052;28;20654;-70
2021/09/14 10:47:21;;;;;;;10.00;5.07;;;;;;;28.22;24.20;95207.50;5036887;28;20247;-68
2021/09/14 10:49:57;;;;;;;6.23;4.40;;;;;;;27.89;25.06;95209.97;5031012;28;20193;-71
2021/09/14 10:52:39;;;;;;;8.93;4.87;;;;;;;28.01;24.47;95212.50;5046202;28;20679;-67
2021/09/14 10:55:14;;;;;;;7.60;4.13;;;;;;;27.91;24.14;95213.88;5050510;28;20199;-69
2021/09/14 10:57:46;;;;;;;7.57;4.30;;;;;;;27.97;23.80;95207.06;5050434;28;20200;-68
2021/09/14 11:00:18;;;;;;;8.13;4.60;;;;;;;28.12;23.78;95201.94;5039907;28;20232;-71
2021/09/14 11:02:58;;;;;;;9.80;4.97;;;;;;;28.33;24.60;95197.69;5044287;28;20586;-71
2021/09/14 11:05:31;;;;;;;12.87;4.67;;;;;;;28.31;23.54;95196.47;5041967;28;20207;-69
2021/09/14 11:08:04;;;;;;;13.40;5.23;;;;;;;28.66;23.88;95197.06;5050074;28;20191;-71
2021/09/14 11:10:35;;;;;;;10.33;5.30;;;;;;;28.49;24.66;95209.09;5050294;28;20584;-67
2021/09/14 11:13:03;;;;;;;16.10;5.10;;;;;;;28.58;25.09;95201.56;5049852;28;20287;-69
2021/09/14 11:15:30;;;;;;;7.53;5.30;;;;;;;28.78;24.52;95203.03;5036373;28;20193;-68
2021/09/14 11:17:58;;;;;;;8.10;4.50;;;;;;;28.80;24.22;95183.78;5051919;28;20219;-68
2021/09/14 11:20:26;;;;;;;7.97;5.47;;;;;;;28.72;24.89;95185.59;5050705;28;20737;-70
2021/09/14 11:22:54;;;;;;;9.37;4.83;;;;;;;28.81;24.37;95191.50;5050577;28;20196;-67
2021/09/14 11:25:29;;;;;;;7.50;5.63;;;;;;;29.02;24.05;95192.97;5036360;28;20205;-66
2021/09/14 11:27:58;;;;;;;5.20;4.40;;;;;;;29.18;24.20;95193.63;5038845;28;20200;-67
2021/09/14 11:30:27;;;;;;;7.17;3.73;;;;;;;28.98;23.75;95187.50;5051241;28;20234;-67
2021/09/14 11:32:55;;;;;;;10.57;4.50;;;;;;;29.22;23.67;95189.03;5049774;28;20215;-66
2021/09/14 11:35:23;;;;;;;5.37;4.43;;;;;;;29.24;23.64;95194.84;5050097;28;20196;-71
2021/09/14 11:37:57;;;;;;;8.47;4.60;;;;;;;29.46;23.84;95188.56;5043911;28;20200;-72
2021/09/14 11:40:24;;;;;;;6.60;4.73;;;;;;;29.63;23.79;95182.59;5042909;28;20231;-70
2021/09/14 11:42:55;;;;;;;6.07;4.43;;;;;;;29.73;22.90;95181.94;5049338;28;20259;-69
2021/09/14 11:45:27;;;;;;;8.40;4.60;;;;;;;29.73;23.95;95184.66;5050143;28;20193;-69
2021/09/14 11:47:56;;;;;;;5.40;4.63;;;;;;;29.58;23.09;95174.81;5048207;28;20208;-66
2021/09/14 11:50:37;;;;;;;10.13;5.47;;;;;;;29.76;23.38;95178.53;5034239;28;20276;-69
2021/09/14 11:53:11;;;;;;;7.77;4.43;;;;;;;29.37;22.87;95174.56;5034117;28;20197;-68
2021/09/14 11:55:43;;;;;;;10.87;4.50;;;;;;;29.68;23.16;95179.56;5047622;28;20205;-66
2021/09/14 11:58:11;;;;;;;6.87;4.40;;;;;;;29.66;23.19;95165.63;5041682;28;20218;-67
2021/09/14 12:00:47;;;;;;;8.63;4.57;;;;;;;29.55;21.17;95173.63;5053902;28;20204;-71
2021/09/14 12:03:21;;;;;;;5.67;4.40;;;;;;;29.56;21.50;95182.50;5043921;28;20196;-66
2021/09/14 12:05:57;;;;;;;5.30;4.13;;;;;;;29.77;21.17;95172.75;5059560;28;20210;-69
2021/09/14 12:08:32;;;;;;;7.10;4.47;;;;;;;29.97;22.59;95162.50;5057982;28;20208;-66
2021/09/14 12:11:00;;;;;;;6.00;4.40;;;;;;;30.20;21.51;95160.41;5038878;28;20203;-67
2021/09/14 12:13:27;;;;;;;9.73;4.80;;;;;;;30.38;20.86;95163.28;5052818;28;20261;-69
2021/09/14 12:16:12;;;;;;;5.67;4.57;;;;;;;30.00;20.07;95158.31;5033853;28;20196;-66
2021/09/14 12:18:44;;;;;;;9.10;4.60;;;;;;;30.08;20.87;95160.69;5035629;28;20200;-67
2021/09/14 12:21:11;;;;;;;6.53;4.30;;;;;;;29.98;20.37;95158.69;5044207;28;20216;-69
2021/09/14 12:23:39;;;;;;;5.73;3.87;;;;;;;30.14;19.46;95148.41;5047206;28;20188;-66
2021/09/14 12:26:40;;;;;;;5.63;4.17;;;;;;;30.52;20.41;95147.97;5033675;28;20197;-69